createdAt,value
2016-12-29T00:00:16.554Z,0.11
2016-12-29T00:01:15.744Z,-0.08
2016-12-29T00:02:15.703Z,-0.11
2016-12-29T00:03:16.052Z,-0.25
2016-12-29T00:04:16.389Z,-0.37
2016-12-29T00:05:15.954Z,-0.43
2016-12-29T00:06:16.303Z,-0.57
2016-12-29T00:07:16.255Z,-0.73
2016-12-29T00:08:16.216Z,-0.79
2016-12-29T00:09:15.399Z,-0.83
2016-12-29T00:10:16.127Z,-0.98
2016-12-29T00:11:15.703Z,-1.12
2016-12-29T00:12:16.041Z,-1.22
2016-12-29T00:13:15.996Z,-1.25
2016-12-29T00:14:15.957Z,-1.41
2016-12-29T00:15:15.912Z,-1.56
2016-12-29T00:16:15.876Z,-1.55
2016-12-29T00:17:15.827Z,-1.74
2016-12-29T00:18:15.404Z,-1.73
2016-12-29T00:19:15.742Z,-1.74
2016-12-29T00:20:15.312Z,-1.9
2016-12-29T00:21:15.693Z,-1.88
2016-12-29T00:22:15.621Z,-1.98
2016-12-29T00:23:15.184Z,-1.92
2016-12-29T00:24:15.527Z,-2.13
2016-12-29T00:25:15.485Z,-2.09
2016-12-29T00:26:15.474Z,-2.12
2016-12-29T00:27:15.401Z,-2.08
2016-12-29T00:28:14.584Z,-2.18
2016-12-29T00:29:15.311Z,-2.18
2016-12-29T00:30:15.266Z,-2.18
2016-12-29T00:31:14.839Z,-2.24
2016-12-29T00:32:14.800Z,-2.16
2016-12-29T00:33:15.140Z,-2.26
2016-12-29T00:34:15.095Z,-2.39
2016-12-29T00:35:14.665Z,-2.3
2016-12-29T00:36:14.624Z,-2.3
2016-12-29T00:37:14.963Z,-2.45
2016-12-29T00:38:14.925Z,-2.4
2016-12-29T00:39:14.882Z,-2.49
2016-12-29T00:40:14.832Z,-2.43
2016-12-29T00:41:14.024Z,-2.48
2016-12-29T00:42:14.745Z,-2.49
2016-12-29T00:43:14.327Z,-2.52
2016-12-29T00:44:14.275Z,-2.53
2016-12-29T00:45:14.242Z,-2.43
2016-12-29T00:46:14.578Z,-2.49
2016-12-29T00:47:14.147Z,-2.46
2016-12-29T00:48:14.484Z,-2.46
2016-12-29T00:49:14.453Z,-2.56
2016-12-29T00:50:14.401Z,-2.55
2016-12-29T00:51:14.361Z,-2.56
2016-12-29T00:52:13.929Z,-2.6
2016-12-29T00:53:14.269Z,-2.63
2016-12-29T00:54:13.844Z,-2.53
2016-12-29T00:55:13.801Z,-2.66
2016-12-29T00:56:14.167Z,-2.67
2016-12-29T00:57:13.326Z,-2.77
2016-12-29T00:58:13.279Z,-2.67
2016-12-29T00:59:14.008Z,-2.68
2016-12-29T01:00:13.580Z,-2.66
2016-12-29T01:01:13.925Z,-2.7
2016-12-29T01:02:13.497Z,-2.56
2016-12-29T01:03:13.836Z,-2.64
2016-12-29T01:04:13.021Z,-2.7
2016-12-29T01:05:13.756Z,-2.68
2016-12-29T01:06:12.937Z,-2.67
2016-12-29T01:07:13.672Z,-2.68
2016-12-29T01:08:13.621Z,-2.63
2016-12-29T01:09:13.196Z,-2.55
2016-12-29T01:10:13.532Z,-2.66
2016-12-29T01:11:13.488Z,-2.67
2016-12-29T01:12:13.442Z,-2.64
2016-12-29T01:13:13.015Z,-2.6
2016-12-29T01:14:13.359Z,-2.71
2016-12-29T01:15:13.311Z,-2.7
2016-12-29T01:16:12.503Z,-2.74
2016-12-29T01:17:13.228Z,-2.82
2016-12-29T01:18:13.185Z,-2.78
2016-12-29T01:19:13.142Z,-2.85
2016-12-29T01:20:13.095Z,-2.94
2016-12-29T01:21:13.053Z,-2.92
2016-12-29T01:22:13.007Z,-2.97
2016-12-29T01:23:12.585Z,-2.96
2016-12-29T01:24:12.921Z,-2.96
2016-12-29T01:25:12.880Z,-3.02
2016-12-29T01:26:12.844Z,-3.06
2016-12-29T01:27:12.403Z,-2.97
2016-12-29T01:28:12.747Z,-2.92
2016-12-29T01:29:12.317Z,-2.89
2016-12-29T01:30:12.665Z,-3.07
2016-12-29T01:31:12.616Z,-3
2016-12-29T01:32:12.187Z,-3.03
2016-12-29T01:33:12.144Z,-3.06
2016-12-29T01:34:12.494Z,-2.97
2016-12-29T01:35:12.057Z,-2.94
2016-12-29T01:36:12.396Z,-3.14
2016-12-29T01:37:11.972Z,-3.05
2016-12-29T01:38:12.310Z,-3.17
2016-12-29T01:39:11.496Z,-3.09
2016-12-29T01:40:12.219Z,-3.07
2016-12-29T01:41:11.793Z,-3.05
2016-12-29T01:42:12.137Z,-3.12
2016-12-29T01:43:12.091Z,-3.1
2016-12-29T01:44:11.278Z,-3.06
2016-12-29T01:45:11.621Z,-3.09
2016-12-29T01:46:11.958Z,-3.1
2016-12-29T01:47:11.921Z,-3.12
2016-12-29T01:48:11.873Z,-3.07
2016-12-29T01:49:11.828Z,-3.12
2016-12-29T01:50:11.398Z,-3.05
2016-12-29T01:51:11.774Z,-3.09
2016-12-29T01:52:10.943Z,-3.05
2016-12-29T01:53:11.649Z,-3.12
2016-12-29T01:54:11.228Z,-3.12
2016-12-29T01:55:11.565Z,-3.1
2016-12-29T01:56:11.525Z,-3.05
2016-12-29T01:57:11.107Z,-3.1
2016-12-29T01:58:11.437Z,-3.09
2016-12-29T01:59:11.392Z,-3.02
2016-12-29T02:00:11.358Z,-3.02
2016-12-29T02:01:11.300Z,-3.07
2016-12-29T02:02:11.265Z,-3.07
2016-12-29T02:03:10.833Z,-3.14
2016-12-29T02:04:11.175Z,-3.17
2016-12-29T02:05:11.136Z,-3.27
2016-12-29T02:06:11.113Z,-3.28
2016-12-29T02:07:11.048Z,-3.25
2016-12-29T02:08:11.006Z,-3.45
2016-12-29T02:09:10.200Z,-3.38
2016-12-29T02:10:10.527Z,-3.31
2016-12-29T02:11:10.095Z,-3.27
2016-12-29T02:12:10.827Z,-3.25
2016-12-29T02:13:10.781Z,-3.27
2016-12-29T02:14:10.346Z,-3.21
2016-12-29T02:15:10.351Z,-3.23
2016-12-29T02:16:10.648Z,-3.02
2016-12-29T02:17:10.606Z,-3.06
2016-12-29T02:18:10.180Z,-3.15
2016-12-29T02:19:10.521Z,-3.07
2016-12-29T02:20:10.089Z,-3.21
2016-12-29T02:21:10.048Z,-3.18
2016-12-29T02:22:10.395Z,-3.25
2016-12-29T02:23:10.349Z,-3.28
2016-12-29T02:24:09.913Z,-3.42
2016-12-29T02:25:10.254Z,-3.38
2016-12-29T02:26:10.214Z,-3.45
2016-12-29T02:27:10.169Z,-3.41
2016-12-29T02:28:10.123Z,-3.45
2016-12-29T02:29:09.696Z,-3.41
2016-12-29T02:30:10.040Z,-3.42
2016-12-29T02:31:09.988Z,-3.42
2016-12-29T02:32:09.954Z,-3.48
2016-12-29T02:33:09.519Z,-3.36
2016-12-29T02:34:09.475Z,-3.35
2016-12-29T02:35:09.432Z,-3.35
2016-12-29T02:36:09.779Z,-3.27
2016-12-29T02:37:09.350Z,-3.38
2016-12-29T02:38:09.300Z,-3.38
2016-12-29T02:39:09.639Z,-3.43
2016-12-29T02:40:09.597Z,-3.43
2016-12-29T02:41:09.555Z,-3.33
2016-12-29T02:42:08.740Z,-3.31
2016-12-29T02:43:09.079Z,-3.41
2016-12-29T02:44:09.428Z,-3.35
2016-12-29T02:45:08.996Z,-3.42
2016-12-29T02:46:09.333Z,-3.46
2016-12-29T02:47:08.911Z,-3.43
2016-12-29T02:48:09.255Z,-3.54
2016-12-29T02:49:09.207Z,-3.53
2016-12-29T02:50:09.160Z,-3.59
2016-12-29T02:51:09.115Z,-3.72
2016-12-29T02:52:09.073Z,-3.59
2016-12-29T02:53:08.642Z,-3.62
2016-12-29T02:54:08.594Z,-3.78
2016-12-29T02:55:08.935Z,-3.69
2016-12-29T02:56:08.511Z,-3.76
2016-12-29T02:57:08.853Z,-3.59
2016-12-29T02:58:08.808Z,-3.6
2016-12-29T02:59:08.760Z,-3.56
2016-12-29T03:00:08.719Z,-3.53
2016-12-29T03:01:08.672Z,-3.57
2016-12-29T03:02:08.634Z,-3.54
2016-12-29T03:03:08.204Z,-3.53
2016-12-29T03:04:07.773Z,-3.53
2016-12-29T03:05:08.527Z,-3.63
2016-12-29T03:06:08.459Z,-3.63
2016-12-29T03:07:08.411Z,-3.57
2016-12-29T03:08:08.366Z,-3.57
2016-12-29T03:09:08.326Z,-3.6
2016-12-29T03:10:07.896Z,-3.57
2016-12-29T03:11:08.233Z,-3.64
2016-12-29T03:12:07.807Z,-3.56
2016-12-29T03:13:08.151Z,-3.75
2016-12-29T03:14:07.723Z,-3.71
2016-12-29T03:15:08.065Z,-3.82
2016-12-29T03:16:08.017Z,-3.75
2016-12-29T03:17:07.977Z,-3.76
2016-12-29T03:18:07.938Z,-3.82
2016-12-29T03:19:07.887Z,-3.82
2016-12-29T03:20:07.845Z,-3.88
2016-12-29T03:21:07.801Z,-3.82
2016-12-29T03:22:07.753Z,-3.85
2016-12-29T03:23:07.708Z,-3.78
2016-12-29T03:24:07.283Z,-3.63
2016-12-29T03:25:07.627Z,-3.67
2016-12-29T03:26:07.190Z,-3.64
2016-12-29T03:27:07.162Z,-3.67
2016-12-29T03:28:07.494Z,-3.57
2016-12-29T03:29:07.443Z,-3.54
2016-12-29T03:30:07.013Z,-3.6
2016-12-29T03:31:07.380Z,-3.69
2016-12-29T03:32:07.311Z,-3.69
2016-12-29T03:33:07.272Z,-3.59
2016-12-29T03:34:06.851Z,-3.82
2016-12-29T03:35:06.411Z,-3.78
2016-12-29T03:36:06.755Z,-3.71
2016-12-29T03:37:07.093Z,-3.72
2016-12-29T03:38:07.052Z,-3.82
2016-12-29T03:39:06.622Z,-3.82
2016-12-29T03:40:06.963Z,-3.79
2016-12-29T03:41:06.931Z,-3.83
2016-12-29T03:42:06.874Z,-3.83
2016-12-29T03:43:06.444Z,-3.88
2016-12-29T03:44:06.793Z,-3.94
2016-12-29T03:45:06.741Z,-3.94
2016-12-29T03:46:06.159Z,-3.94
2016-12-29T03:47:05.730Z,-3.96
2016-12-29T03:48:06.070Z,-4.07
2016-12-29T03:49:06.023Z,-4.07
2016-12-29T03:50:05.987Z,-4.1
2016-12-29T03:51:05.938Z,-4.14
2016-12-29T03:52:05.890Z,-4.15
2016-12-29T03:53:05.465Z,-4.18
2016-12-29T03:54:05.811Z,-4.17
2016-12-29T03:55:05.758Z,-4.24
2016-12-29T03:56:05.331Z,-4.24
2016-12-29T03:57:05.673Z,-4.29
2016-12-29T03:58:05.627Z,-4.18
2016-12-29T03:59:05.587Z,-4.24
2016-12-29T04:00:05.156Z,-4.32
2016-12-29T04:01:05.497Z,-4.21
2016-12-29T04:02:05.452Z,-4.2
2016-12-29T04:03:05.409Z,-4.29
2016-12-29T04:04:05.363Z,-4.4
2016-12-29T04:05:05.319Z,-4.3
2016-12-29T04:06:05.274Z,-4.39
2016-12-29T04:07:05.235Z,-4.4
2016-12-29T04:08:05.185Z,-4.42
2016-12-29T04:09:05.146Z,-4.38
2016-12-29T04:10:04.711Z,-4.33
2016-12-29T04:11:05.054Z,-4.4
2016-12-29T04:12:05.011Z,-4.39
2016-12-29T04:13:04.967Z,-4.36
2016-12-29T04:14:04.923Z,-4.39
2016-12-29T04:15:04.881Z,-4.36
2016-12-29T04:16:04.855Z,-4.4
2016-12-29T04:17:04.795Z,-4.36
2016-12-29T04:18:04.358Z,-4.36
2016-12-29T04:19:04.319Z,-4.42
2016-12-29T04:20:04.656Z,-4.4
2016-12-29T04:21:04.613Z,-4.38
2016-12-29T04:22:04.566Z,-4.35
2016-12-29T04:23:04.527Z,-4.38
2016-12-29T04:24:04.483Z,-4.21
2016-12-29T04:25:04.049Z,-4.24
2016-12-29T04:26:04.008Z,-4.25
2016-12-29T04:27:03.964Z,-4.25
2016-12-29T04:28:04.300Z,-4.25
2016-12-29T04:29:04.256Z,-4.21
2016-12-29T04:30:04.214Z,-4.4
2016-12-29T04:31:04.171Z,-4.38
2016-12-29T04:32:04.126Z,-4.38
2016-12-29T04:33:03.698Z,-4.38
2016-12-29T04:34:04.035Z,-4.43
2016-12-29T04:35:03.607Z,-4.47
2016-12-29T04:36:03.947Z,-4.51
2016-12-29T04:37:03.902Z,-4.5
2016-12-29T04:38:03.863Z,-4.53
2016-12-29T04:39:03.814Z,-4.54
2016-12-29T04:40:03.768Z,-4.53
2016-12-29T04:41:03.725Z,-4.57
2016-12-29T04:42:03.686Z,-4.6
2016-12-29T04:43:03.636Z,-4.68
2016-12-29T04:44:03.595Z,-4.61
2016-12-29T04:45:03.546Z,-4.67
2016-12-29T04:46:03.504Z,-4.69
2016-12-29T04:47:03.459Z,-4.69
2016-12-29T04:48:03.421Z,-4.72
2016-12-29T04:49:03.372Z,-4.71
2016-12-29T04:50:03.361Z,-4.83
2016-12-29T04:51:03.285Z,-4.77
2016-12-29T04:52:03.242Z,-4.86
2016-12-29T04:53:03.197Z,-4.87
2016-12-29T04:54:03.150Z,-4.93
2016-12-29T04:55:03.108Z,-4.83
2016-12-29T04:56:03.063Z,-4.93
2016-12-29T04:57:03.017Z,-4.96
2016-12-29T04:58:02.974Z,-4.92
2016-12-29T04:59:02.927Z,-4.77
2016-12-29T05:00:02.887Z,-4.75
2016-12-29T05:01:02.839Z,-4.75
2016-12-29T05:02:02.794Z,-4.72
2016-12-29T05:03:02.751Z,-4.71
2016-12-29T05:04:02.706Z,-4.69
2016-12-29T05:05:02.660Z,-4.54
2016-12-29T05:06:02.621Z,-4.5
2016-12-29T05:07:02.190Z,-4.5
2016-12-29T05:08:02.533Z,-4.5
2016-12-29T05:09:02.485Z,-4.6
2016-12-29T05:10:02.439Z,-4.58
2016-12-29T05:11:02.395Z,-4.68
2016-12-29T05:12:02.352Z,-4.71
2016-12-29T05:13:02.305Z,-4.67
2016-12-29T05:14:02.260Z,-4.71
2016-12-29T05:15:02.217Z,-4.67
2016-12-29T05:16:02.179Z,-4.72
2016-12-29T05:17:02.130Z,-4.79
2016-12-29T05:18:02.086Z,-4.83
2016-12-29T05:19:02.044Z,-4.85
2016-12-29T05:20:01.996Z,-4.83
2016-12-29T05:21:01.951Z,-4.77
2016-12-29T05:22:01.906Z,-4.95
2016-12-29T05:23:01.860Z,-4.89
2016-12-29T05:24:01.817Z,-4.89
2016-12-29T05:25:01.389Z,-4.92
2016-12-29T05:26:01.734Z,-4.85
2016-12-29T05:27:01.687Z,-4.93
2016-12-29T05:28:01.648Z,-4.97
2016-12-29T05:29:01.597Z,-4.93
2016-12-29T05:30:01.554Z,-5.06
2016-12-29T05:31:01.508Z,-5.04
2016-12-29T05:32:01.077Z,-5.04
2016-12-29T05:33:01.418Z,-5.07
2016-12-29T05:34:01.375Z,-5.04
2016-12-29T05:35:01.330Z,-5.07
2016-12-29T05:36:01.293Z,-5.1
2016-12-29T05:37:01.239Z,-5.1
2016-12-29T05:38:01.195Z,-5.08
2016-12-29T05:39:01.155Z,-5
2016-12-29T05:40:00.724Z,-5.08
2016-12-29T05:41:00.679Z,-5.13
2016-12-29T05:42:01.014Z,-5.14
2016-12-29T05:43:00.971Z,-5.1
2016-12-29T05:44:00.545Z,-5.08
2016-12-29T05:45:00.884Z,-5.06
2016-12-29T05:46:00.843Z,-5.04
2016-12-29T05:47:00.409Z,-5.06
2016-12-29T05:48:00.750Z,-5
2016-12-29T05:49:00.321Z,-5.07
2016-12-29T05:50:00.660Z,-5.04
2016-12-29T05:51:00.231Z,-5.08
2016-12-29T05:52:00.187Z,-5.07
2016-12-29T05:53:00.529Z,-5.07
2016-12-29T05:54:00.483Z,-5.08
2016-12-29T05:55:00.437Z,-5.17
2016-12-29T05:56:00.011Z,-5.22
2016-12-29T05:56:59.964Z,-5.23
2016-12-29T05:58:00.308Z,-5.19
2016-12-29T05:59:00.264Z,-5.17
2016-12-29T06:00:00.217Z,-5.26
2016-12-29T06:01:00.172Z,-5.26
2016-12-29T06:02:00.126Z,-5.14
2016-12-29T06:02:59.695Z,-5.19
2016-12-29T06:04:00.036Z,-5.19
2016-12-29T06:04:59.995Z,-5.22
2016-12-29T06:05:59.951Z,-5.19
2016-12-29T06:06:59.902Z,-5.22
2016-12-29T06:07:59.861Z,-5.17
2016-12-29T06:08:59.433Z,-5.19
2016-12-29T06:09:59.767Z,-5.22
2016-12-29T06:10:59.340Z,-5.26
2016-12-29T06:11:59.684Z,-5.25
2016-12-29T06:12:59.251Z,-5.19
2016-12-29T06:13:59.592Z,-5.22
2016-12-29T06:14:59.550Z,-5.17
2016-12-29T06:15:59.504Z,-5.17
2016-12-29T06:16:59.457Z,-5.17
2016-12-29T06:17:59.415Z,-5.33
2016-12-29T06:18:59.366Z,-5.23
2016-12-29T06:19:59.322Z,-5.26
2016-12-29T06:20:59.281Z,-5.22
2016-12-29T06:21:59.236Z,-5.27
2016-12-29T06:22:59.193Z,-5.41
2016-12-29T06:23:59.146Z,-5.35
2016-12-29T06:24:59.100Z,-5.44
2016-12-29T06:25:59.057Z,-5.39
2016-12-29T06:26:59.007Z,-5.3
2016-12-29T06:27:58.967Z,-5.29
2016-12-29T06:28:58.924Z,-5.37
2016-12-29T06:29:58.497Z,-5.3
2016-12-29T06:30:58.834Z,-5.41
2016-12-29T06:31:58.788Z,-5.37
2016-12-29T06:32:58.744Z,-5.44
2016-12-29T06:33:58.700Z,-5.47
2016-12-29T06:34:58.269Z,-5.51
2016-12-29T06:35:58.236Z,-5.41
2016-12-29T06:36:58.567Z,-5.47
2016-12-29T06:37:58.136Z,-5.46
2016-12-29T06:38:58.091Z,-5.46
2016-12-29T06:39:58.432Z,-5.51
2016-12-29T06:40:58.384Z,-5.51
2016-12-29T06:41:57.964Z,-5.51
2016-12-29T06:42:57.911Z,-5.53
2016-12-29T06:43:58.252Z,-5.64
2016-12-29T06:44:58.209Z,-5.47
2016-12-29T06:45:58.177Z,-5.55
2016-12-29T06:46:58.117Z,-5.5
2016-12-29T06:47:58.074Z,-5.59
2016-12-29T06:48:58.033Z,-5.65
2016-12-29T06:49:57.985Z,-5.54
2016-12-29T06:50:57.942Z,-5.61
2016-12-29T06:51:57.917Z,-5.59
2016-12-29T06:52:57.848Z,-5.55
2016-12-29T06:53:57.425Z,-5.57
2016-12-29T06:54:57.377Z,-5.61
2016-12-29T06:55:57.723Z,-5.61
2016-12-29T06:56:57.671Z,-5.47
2016-12-29T06:57:57.629Z,-5.61
2016-12-29T06:58:57.198Z,-5.41
2016-12-29T06:59:57.541Z,-5.54
2016-12-29T07:00:57.491Z,-5.57
2016-12-29T07:01:57.446Z,-5.55
2016-12-29T07:02:57.403Z,-5.47
2016-12-29T07:03:56.975Z,-5.48
2016-12-29T07:04:57.312Z,-5.5
2016-12-29T07:05:57.268Z,-5.5
2016-12-29T07:06:57.225Z,-5.47
2016-12-29T07:07:57.180Z,-5.41
2016-12-29T07:08:56.750Z,-5.46
2016-12-29T07:09:57.096Z,-5.41
2016-12-29T07:10:57.043Z,-5.46
2016-12-29T07:11:56.617Z,-5.44
2016-12-29T07:12:56.955Z,-5.46
2016-12-29T07:13:56.912Z,-5.35
2016-12-29T07:14:56.480Z,-5.33
2016-12-29T07:15:56.437Z,-5.27
2016-12-29T07:16:56.776Z,-5.41
2016-12-29T07:17:56.734Z,-5.35
2016-12-29T07:18:56.687Z,-5.32
2016-12-29T07:19:56.642Z,-5.26
2016-12-29T07:20:56.598Z,-5.33
2016-12-29T07:21:56.166Z,-5.27
2016-12-29T07:22:57.050Z,-5.25
2016-12-29T07:23:56.620Z,-4.99
2016-12-29T07:24:56.960Z,-4.95
2016-12-29T07:25:56.939Z,-4.61
2016-12-29T07:26:56.866Z,-4.4
2016-12-29T07:27:56.439Z,-4.01
2016-12-29T07:28:56.398Z,-3.79
2016-12-29T07:29:56.388Z,-3.54
2016-12-29T07:30:56.688Z,-3.24
2016-12-29T07:31:56.261Z,-2.99
2016-12-29T07:32:56.604Z,-2.74
2016-12-29T07:33:56.561Z,-2.48
2016-12-29T07:34:56.512Z,-2.12
2016-12-29T07:35:56.468Z,-1.91
2016-12-29T07:36:56.429Z,-1.66
2016-12-29T07:37:55.998Z,-1.46
2016-12-29T07:38:55.954Z,-1.2
2016-12-29T07:39:56.302Z,-1.02
2016-12-29T07:40:56.250Z,-0.79
2016-12-29T07:41:56.210Z,-0.6
2016-12-29T07:42:56.160Z,-0.39
2016-12-29T07:43:55.733Z,-0.18
2016-12-29T07:44:55.692Z,-0.01
2016-12-29T07:45:55.643Z,0.2
2016-12-29T07:46:55.996Z,0.26
2016-12-29T07:47:55.949Z,0.44
2016-12-29T07:48:55.904Z,0.5
2016-12-29T07:49:55.490Z,0.65
2016-12-29T07:50:55.963Z,0.83
2016-12-29T07:51:55.977Z,0.84
2016-12-29T07:52:55.731Z,0.98
2016-12-29T07:53:55.302Z,1.15
2016-12-29T07:54:55.649Z,1.22
2016-12-29T07:55:55.606Z,1.42
2016-12-29T07:56:55.568Z,1.58
2016-12-29T07:57:55.524Z,1.77
2016-12-29T07:58:55.484Z,1.95
2016-12-29T07:59:55.438Z,2.2
2016-12-29T08:00:55.397Z,2.53
2016-12-29T08:01:55.365Z,2.64
2016-12-29T08:02:54.545Z,2.92
2016-12-29T08:03:55.273Z,3.13
2016-12-29T08:04:54.847Z,3.23
2016-12-29T08:05:55.190Z,3.48
2016-12-29T08:06:54.767Z,3.75
2016-12-29T08:07:55.126Z,3.94
2016-12-29T08:08:55.073Z,4.15
2016-12-29T08:09:55.031Z,4.4
2016-12-29T08:10:54.602Z,4.5
2016-12-29T08:11:54.948Z,4.75
2016-12-29T08:12:54.907Z,4.8
2016-12-29T08:13:54.486Z,4.96
2016-12-29T08:14:54.461Z,5.15
2016-12-29T08:15:54.408Z,5.22
2016-12-29T08:16:54.753Z,5.42
2016-12-29T08:17:54.330Z,5.49
2016-12-29T08:18:54.677Z,5.67
2016-12-29T08:19:54.248Z,5.78
2016-12-29T08:20:54.596Z,5.97
2016-12-29T08:21:54.556Z,6.11
2016-12-29T08:22:54.513Z,6.38
2016-12-29T08:23:54.485Z,6.55
2016-12-29T08:24:54.438Z,6.71
2016-12-29T08:25:54.404Z,6.71
2016-12-29T08:26:53.977Z,6.85
2016-12-29T08:27:53.944Z,6.99
2016-12-29T08:28:53.898Z,7.09
2016-12-29T08:29:54.247Z,7.23
2016-12-29T08:30:54.219Z,7.3
2016-12-29T08:31:53.800Z,7.37
2016-12-29T08:32:53.753Z,7.42
2016-12-29T08:33:53.719Z,7.49
2016-12-29T08:34:54.068Z,7.63
2016-12-29T08:35:53.650Z,7.69
2016-12-29T08:36:53.997Z,7.98
2016-12-29T08:37:53.962Z,8.18
2016-12-29T08:38:53.924Z,8.41
2016-12-29T08:39:53.500Z,8.41
2016-12-29T08:40:53.463Z,8.5
2016-12-29T08:41:53.815Z,8.58
2016-12-29T08:42:53.008Z,8.79
2016-12-29T08:43:53.749Z,8.86
2016-12-29T08:44:53.709Z,8.87
2016-12-29T08:45:53.286Z,8.95
2016-12-29T08:46:53.640Z,9.05
2016-12-29T08:47:53.600Z,9.32
2016-12-29T08:48:53.181Z,9.39
2016-12-29T08:49:53.533Z,9.48
2016-12-29T08:50:53.110Z,9.54
2016-12-29T08:51:53.461Z,9.54
2016-12-29T08:52:53.428Z,9.54
2016-12-29T08:53:53.399Z,9.71
2016-12-29T08:54:53.362Z,9.86
2016-12-29T08:55:52.942Z,10.05
2016-12-29T08:56:53.300Z,10.01
2016-12-29T08:57:52.487Z,10.18
2016-12-29T08:58:52.455Z,10.29
2016-12-29T08:59:53.195Z,10.51
2016-12-29T09:00:53.160Z,10.63
2016-12-29T09:01:52.742Z,10.79
2016-12-29T09:02:53.093Z,10.78
2016-12-29T09:03:53.062Z,10.56
2016-12-29T09:04:52.645Z,10.41
2016-12-29T09:05:52.226Z,10.48
2016-12-29T09:06:52.967Z,10.45
2016-12-29T09:07:52.930Z,10.64
2016-12-29T09:08:52.514Z,10.64
2016-12-29T09:09:52.482Z,10.82
2016-12-29T09:10:52.830Z,10.96
2016-12-29T09:11:52.797Z,11.15
2016-12-29T09:12:52.380Z,11.28
2016-12-29T09:13:52.734Z,11.44
2016-12-29T09:14:52.320Z,11.58
2016-12-29T09:15:52.283Z,11.57
2016-12-29T09:16:52.645Z,11.61
2016-12-29T09:17:52.608Z,11.73
2016-12-29T09:18:52.572Z,11.85
2016-12-29T09:19:52.159Z,11.96
2016-12-29T09:20:52.518Z,12.01
2016-12-29T09:21:52.485Z,12.17
2016-12-29T09:22:52.066Z,12.34
2016-12-29T09:23:52.418Z,12.45
2016-12-29T09:24:52.415Z,12.52
2016-12-29T09:25:52.353Z,12.5
2016-12-29T09:26:51.967Z,12.42
2016-12-29T09:27:52.294Z,12.68
2016-12-29T09:28:51.882Z,12.7
2016-12-29T09:29:52.231Z,12.57
2016-12-29T09:30:52.207Z,12.27
2016-12-29T09:31:52.176Z,12.23
2016-12-29T09:32:51.755Z,12.32
2016-12-29T09:33:52.111Z,12.56
2016-12-29T09:34:51.693Z,12.9
2016-12-29T09:35:52.047Z,13.1
2016-12-29T09:36:52.022Z,13.19
2016-12-29T09:37:51.991Z,13.29
2016-12-29T09:38:51.956Z,13.28
2016-12-29T09:39:51.544Z,13.32
2016-12-29T09:40:51.899Z,13.41
2016-12-29T09:41:51.868Z,13.28
2016-12-29T09:42:51.838Z,13.42
2016-12-29T09:43:51.809Z,13.55
2016-12-29T09:44:51.393Z,13.63
2016-12-29T09:45:51.747Z,13.81
2016-12-29T09:46:51.721Z,13.81
2016-12-29T09:47:51.309Z,13.7
2016-12-29T09:48:50.896Z,13.59
2016-12-29T09:49:51.636Z,13.79
2016-12-29T09:50:51.598Z,13.89
2016-12-29T09:51:51.571Z,13.96
2016-12-29T09:52:51.542Z,13.96
2016-12-29T09:53:51.512Z,13.87
2016-12-29T09:54:51.098Z,13.69
2016-12-29T09:55:50.685Z,13.64
2016-12-29T09:56:51.428Z,13.78
2016-12-29T09:57:51.397Z,13.88
2016-12-29T09:58:50.598Z,13.96
2016-12-29T09:59:51.342Z,14.14
2016-12-29T10:00:51.305Z,14.4
2016-12-29T10:01:50.898Z,14.4
2016-12-29T10:02:51.256Z,14.07
2016-12-29T10:03:50.449Z,14.12
2016-12-29T10:04:51.193Z,13.97
2016-12-29T10:05:51.168Z,13.95
2016-12-29T10:06:50.747Z,13.96
2016-12-29T10:07:51.107Z,14.25
2016-12-29T10:08:51.075Z,14.29
2016-12-29T10:09:51.049Z,14.33
2016-12-29T10:10:51.025Z,14.42
2016-12-29T10:11:50.606Z,14.51
2016-12-29T10:12:50.961Z,14.35
2016-12-29T10:13:50.545Z,14.29
2016-12-29T10:14:50.515Z,14.27
2016-12-29T10:15:50.873Z,14.18
2016-12-29T10:16:50.072Z,14.12
2016-12-29T10:17:50.812Z,14.04
2016-12-29T10:18:50.787Z,13.97
2016-12-29T10:19:50.758Z,13.92
2016-12-29T10:20:49.993Z,14.04
2016-12-29T10:21:50.703Z,14.24
2016-12-29T10:22:50.668Z,14.27
2016-12-29T10:23:50.641Z,13.99
2016-12-29T10:24:50.615Z,13.66
2016-12-29T10:25:50.197Z,13.54
2016-12-29T10:26:50.553Z,13.85
2016-12-29T10:27:50.531Z,14.15
2016-12-29T10:28:50.494Z,14.35
2016-12-29T10:29:50.467Z,14.39
2016-12-29T10:30:50.049Z,14.45
2016-12-29T10:31:50.405Z,14.52
2016-12-29T10:32:49.998Z,14.68
2016-12-29T10:33:50.357Z,14.69
2016-12-29T10:34:49.936Z,14.57
2016-12-29T10:35:50.290Z,14.6
2016-12-29T10:36:50.259Z,14.68
2016-12-29T10:37:50.227Z,14.88
2016-12-29T10:38:50.206Z,15.06
2016-12-29T10:39:50.167Z,15.14
2016-12-29T10:40:50.140Z,15.23
2016-12-29T10:41:50.115Z,15.14
2016-12-29T10:42:50.081Z,15.14
2016-12-29T10:43:49.667Z,14.98
2016-12-29T10:44:49.637Z,15.02
2016-12-29T10:45:49.992Z,15.21
2016-12-29T10:46:49.194Z,15.21
2016-12-29T10:47:49.933Z,15.39
2016-12-29T10:48:49.902Z,15.43
2016-12-29T10:49:49.880Z,15.46
2016-12-29T10:50:49.846Z,15.46
2016-12-29T10:51:49.435Z,15.31
2016-12-29T10:52:49.786Z,15.2
2016-12-29T10:53:49.757Z,14.95
2016-12-29T10:54:49.724Z,14.88
2016-12-29T10:55:49.312Z,14.57
2016-12-29T10:56:49.285Z,14.43
2016-12-29T10:57:49.250Z,14.42
2016-12-29T10:58:49.223Z,14.58
2016-12-29T10:59:48.807Z,14.65
2016-12-29T11:00:49.554Z,14.54
2016-12-29T11:01:49.139Z,14.29
2016-12-29T11:02:49.496Z,14.25
2016-12-29T11:03:49.464Z,14.35
2016-12-29T11:04:49.048Z,14.43
2016-12-29T11:05:49.022Z,14.62
2016-12-29T11:06:48.985Z,14.73
2016-12-29T11:07:48.573Z,14.92
2016-12-29T11:08:48.930Z,14.95
2016-12-29T11:09:48.917Z,14.96
2016-12-29T11:10:49.251Z,14.96
2016-12-29T11:11:49.229Z,14.94
2016-12-29T11:12:49.193Z,14.83
2016-12-29T11:13:49.165Z,14.7
2016-12-29T11:14:49.148Z,14.68
2016-12-29T11:15:48.724Z,14.78
2016-12-29T11:16:49.075Z,14.92
2016-12-29T11:17:49.047Z,14.94
2016-12-29T11:18:48.630Z,14.81
2016-12-29T11:19:48.610Z,14.7
2016-12-29T11:20:48.954Z,14.45
2016-12-29T11:21:48.936Z,14.52
2016-12-29T11:22:48.121Z,14.57
2016-12-29T11:23:48.483Z,14.68
2016-12-29T11:24:48.448Z,14.75
2016-12-29T11:25:48.421Z,14.65
2016-12-29T11:26:48.770Z,14.32
2016-12-29T11:27:48.739Z,14.09
2016-12-29T11:28:48.321Z,13.97
2016-12-29T11:29:47.907Z,13.82
2016-12-29T11:30:48.260Z,13.55
2016-12-29T11:31:48.614Z,13.48
2016-12-29T11:32:48.583Z,13.52
2016-12-29T11:33:48.167Z,13.55
2016-12-29T11:34:48.524Z,13.64
2016-12-29T11:35:48.103Z,13.71
2016-12-29T11:36:48.077Z,13.81
2016-12-29T11:37:48.078Z,13.73
2016-12-29T11:38:48.396Z,13.52
2016-12-29T11:39:48.358Z,13.14
2016-12-29T11:40:47.945Z,12.79
2016-12-29T11:41:48.297Z,12.78
2016-12-29T11:42:47.876Z,12.78
2016-12-29T11:43:47.874Z,12.77
2016-12-29T11:44:48.208Z,12.75
2016-12-29T11:45:48.163Z,12.79
2016-12-29T11:46:47.745Z,13.03
2016-12-29T11:47:48.093Z,13.2
2016-12-29T11:48:48.061Z,13.3
2016-12-29T11:49:47.669Z,13.45
2016-12-29T11:50:47.611Z,13.52
2016-12-29T11:51:47.579Z,13.54
2016-12-29T11:52:47.933Z,13.62
2016-12-29T11:53:47.508Z,13.55
2016-12-29T11:54:47.863Z,13.54
2016-12-29T11:55:47.823Z,13.59
2016-12-29T11:56:47.791Z,13.63
2016-12-29T11:57:47.754Z,13.52
2016-12-29T11:58:47.723Z,13.26
2016-12-29T11:59:47.299Z,13.07
2016-12-29T12:00:47.648Z,13.03
2016-12-29T12:01:47.613Z,12.96
2016-12-29T12:02:47.579Z,12.92
2016-12-29T12:03:47.169Z,13
2016-12-29T12:04:47.506Z,12.87
2016-12-29T12:05:47.086Z,12.82
2016-12-29T12:06:47.438Z,12.7
2016-12-29T12:07:47.012Z,12.64
2016-12-29T12:08:46.973Z,12.46
2016-12-29T12:09:47.328Z,12.32
2016-12-29T12:10:47.296Z,12.09
2016-12-29T12:11:47.251Z,11.78
2016-12-29T12:12:47.216Z,11.51
2016-12-29T12:13:47.182Z,11.21
2016-12-29T12:14:47.142Z,11.07
2016-12-29T12:15:47.103Z,10.89
2016-12-29T12:16:46.680Z,10.82
2016-12-29T12:17:46.645Z,10.59
2016-12-29T12:18:46.994Z,10.08
2016-12-29T12:19:46.571Z,9.72
2016-12-29T12:20:46.924Z,9.24
2016-12-29T12:21:46.886Z,8.86
2016-12-29T12:22:46.846Z,8.47
2016-12-29T12:23:46.806Z,8.01
2016-12-29T12:24:46.770Z,7.8
2016-12-29T12:25:46.733Z,7.43
2016-12-29T12:26:46.697Z,7.21
2016-12-29T12:27:46.663Z,7.02
2016-12-29T12:28:46.235Z,6.84
2016-12-29T12:29:46.577Z,6.54
2016-12-29T12:30:46.157Z,6.38
2016-12-29T12:31:46.505Z,6.28
2016-12-29T12:32:46.081Z,6.17
2016-12-29T12:33:46.425Z,6.11
2016-12-29T12:34:46.000Z,5.85
2016-12-29T12:35:46.350Z,5.72
2016-12-29T12:36:46.313Z,5.54
2016-12-29T12:37:45.890Z,5.43
2016-12-29T12:38:45.848Z,5.42
2016-12-29T12:39:45.807Z,5.3
2016-12-29T12:40:45.771Z,5.4
2016-12-29T12:41:46.124Z,5.45
2016-12-29T12:42:46.080Z,5.48
2016-12-29T12:43:46.043Z,5.39
2016-12-29T12:44:45.618Z,5.38
2016-12-29T12:45:45.961Z,5.2
2016-12-29T12:46:45.923Z,5.13
2016-12-29T12:47:45.883Z,5.12
2016-12-29T12:48:45.842Z,5.1
2016-12-29T12:49:45.037Z,5.18
2016-12-29T12:50:45.764Z,5.22
2016-12-29T12:51:45.730Z,5.25
2016-12-29T12:52:45.302Z,5.33
2016-12-29T12:53:44.873Z,5.24
2016-12-29T12:54:45.619Z,5.15
2016-12-29T12:55:45.569Z,5.06
2016-12-29T12:56:45.142Z,5.03
2016-12-29T12:57:45.484Z,4.8